Time;durP1;ratioP1;P1;durP2;ratioP2;P2;SDS_P1;SDS_P2;PMS_P1;PMS_P2;Temp;Humidity;BMP_temperature;BMP_pressure;BME280_temperature;BME280_humidity;BME280_pressure;Samples;Min_cycle;Max_cycle;Signal;HPM_P1;HPM_P2
2021/09/04 00:00:25;;;;;;;12.65;4.68;;;;;;;;;;5107340;28;20375;-68
2021/09/04 00:02:52;;;;;;;9.07;4.82;;;;;;;;;;5107369;28;20153;-72
2021/09/04 00:05:18;;;;;;;7.85;4.95;;;;;;;;;;5107526;28;20071;-69
2021/09/04 00:07:44;;;;;;;11.15;5.03;;;;;;;;;;5105255;28;20479;-69
2021/09/04 00:10:10;;;;;;;11.13;4.85;;;;;;;;;;5107002;28;20043;-70
2021/09/04 00:12:37;;;;;;;10.35;4.43;;;;;;;;;;5106999;28;20537;-72
2021/09/04 00:15:03;;;;;;;12.90;5.03;;;;;;;;;;5106841;28;20020;-69
2021/09/04 00:17:30;;;;;;;8.45;4.30;;;;;;;;;;5105633;28;20111;-69
2021/09/04 00:19:56;;;;;;;12.70;4.70;;;;;;;;;;5106844;28;20135;-72
2021/09/04 00:22:22;;;;;;;12.75;5.05;;;;;;;;;;5106699;28;20026;-69
2021/09/04 00:24:48;;;;;;;10.00;4.85;;;;;;;;;;5106443;28;20072;-69
2021/09/04 00:27:14;;;;;;;9.95;4.55;;;;;;;;;;5105058;28;20080;-68
2021/09/04 00:29:41;;;;;;;17.40;4.55;;;;;;;;;;5106565;28;20011;-72
2021/09/04 00:32:07;;;;;;;8.55;4.40;;;;;;;;;;5086229;28;20024;-68
2021/09/04 00:34:33;;;;;;;13.98;5.30;;;;;;;;;;5088266;28;20026;-68
2021/09/04 00:36:59;;;;;;;12.38;5.00;;;;;;;;;;5092525;28;20016;-72
2021/09/04 00:39:25;;;;;;;14.30;5.53;;;;;;;;;;5095784;28;20034;-73
2021/09/04 00:41:52;;;;;;;11.40;4.97;;;;;;;;;;5099535;28;20388;-72
2021/09/04 00:44:19;;;;;;;13.80;5.20;;;;;;;;;;5092698;28;20020;-71
2021/09/04 00:46:45;;;;;;;10.52;5.07;;;;;;;;;;5076193;28;20032;-69
2021/09/04 00:49:12;;;;;;;13.55;5.15;;;;;;;;;;5099131;28;20032;-68
2021/09/04 00:51:38;;;;;;;9.80;5.03;;;;;;;;;;5094935;28;20047;-69
2021/09/04 00:54:05;;;;;;;10.35;5.30;;;;;;;;;;5100465;28;20020;-70
2021/09/04 00:56:31;;;;;;;12.93;5.00;;;;;;;;;;5095031;28;20107;-68
2021/09/04 00:58:59;;;;;;;18.60;5.25;;;;;;;;;;5091764;28;20131;-68
2021/09/04 01:01:25;;;;;;;19.05;5.35;;;;;;;;;;5096178;28;20032;-68
2021/09/04 01:03:51;;;;;;;12.95;4.80;;;;;;;;;;5094978;28;20460;-69
2021/09/04 01:06:18;;;;;;;12.15;4.75;;;;;;;;;;5099844;28;20463;-68
2021/09/04 01:08:44;;;;;;;14.85;4.90;;;;;;;;;;5096863;28;20096;-68
2021/09/04 01:11:10;;;;;;;21.17;5.75;;;;;;;;;;5093667;28;20530;-69
2021/09/04 01:13:37;;;;;;;12.77;4.78;;;;;;;;;;5096584;28;20123;-70
2021/09/04 01:16:03;;;;;;;6.57;4.80;;;;;;;;;;5094965;28;20026;-69
2021/09/04 01:18:30;;;;;;;9.23;4.45;;;;;;;;;;5092068;28;20068;-69
2021/09/04 01:20:56;;;;;;;7.35;4.78;;;;;;;;;;5096361;28;20012;-73
2021/09/04 01:23:22;;;;;;;7.60;4.53;;;;;;;;;;5102673;28;20032;-69
2021/09/04 01:25:53;;;;;;;6.32;4.45;;;;;;;;;;5097576;28;20087;-68
2021/09/04 01:28:19;;;;;;;10.30;4.57;;;;;;;;;;5096818;28;20535;-68
2021/09/04 01:30:46;;;;;;;5.38;4.22;;;;;;;;;;5091788;28;20046;-69
2021/09/04 01:33:13;;;;;;;10.02;4.43;;;;;;;;;;5093513;28;20036;-68
2021/09/04 01:35:39;;;;;;;9.43;4.78;;;;;;;;;;5095261;28;20020;-69
2021/09/04 01:38:05;;;;;;;7.97;4.45;;;;;;;;;;5097804;28;20039;-68
2021/09/04 01:40:31;;;;;;;8.02;5.00;;;;;;;;;;5092360;28;20095;-68
2021/09/04 01:42:57;;;;;;;5.40;4.45;;;;;;;;;;5096145;28;20016;-69
2021/09/04 01:45:23;;;;;;;6.85;4.55;;;;;;;;;;5093715;28;20027;-68
2021/09/04 01:47:50;;;;;;;8.35;4.80;;;;;;;;;;5095211;28;20019;-68
2021/09/04 01:50:16;;;;;;;8.45;4.57;;;;;;;;;;5095430;28;20071;-69
2021/09/04 01:52:43;;;;;;;10.35;4.28;;;;;;;;;;5078964;28;20494;-69
2021/09/04 01:55:11;;;;;;;6.72;4.10;;;;;;;;;;5094224;28;20032;-69
2021/09/04 01:57:37;;;;;;;10.63;4.95;;;;;;;;;;5090865;28;20027;-69
2021/09/04 02:00:05;;;;;;;6.63;4.25;;;;;;;;;;5091969;28;20027;-70
2021/09/04 02:02:31;;;;;;;6.40;4.30;;;;;;;;;;5093567;28;20391;-69
2021/09/04 02:04:57;;;;;;;9.27;3.97;;;;;;;;;;5092052;28;20336;-70
2021/09/04 02:07:23;;;;;;;13.40;4.22;;;;;;;;;;5094758;28;20468;-71
2021/09/04 02:09:50;;;;;;;8.45;4.20;;;;;;;;;;5089237;28;20047;-71
2021/09/04 02:12:16;;;;;;;19.45;5.47;;;;;;;;;;5090641;28;20492;-69
2021/09/04 02:14:42;;;;;;;22.60;5.55;;;;;;;;;;5094367;28;20040;-68
2021/09/04 02:17:08;;;;;;;11.73;5.50;;;;;;;;;;5091360;28;20032;-69
2021/09/04 02:19:34;;;;;;;8.07;5.30;;;;;;;;;;5093396;28;20039;-69
2021/09/04 02:22:01;;;;;;;12.65;5.15;;;;;;;;;;5093788;28;20026;-68
2021/09/04 02:24:29;;;;;;;12.80;5.78;;;;;;;;;;5091135;28;20080;-68
2021/09/04 02:26:55;;;;;;;6.97;5.45;;;;;;;;;;5089615;28;20027;-68
2021/09/04 02:29:21;;;;;;;7.43;4.70;;;;;;;;;;5091269;28;20032;-69
2021/09/04 02:31:47;;;;;;;9.65;5.35;;;;;;;;;;5090562;28;20492;-69
2021/09/04 02:34:14;;;;;;;10.95;5.28;;;;;;;;;;5092781;28;20020;-69
2021/09/04 02:36:40;;;;;;;9.30;4.75;;;;;;;;;;5093667;28;20024;-68
2021/09/04 02:39:06;;;;;;;9.63;5.18;;;;;;;;;;5100102;28;20020;-69
2021/09/04 02:41:32;;;;;;;9.00;5.18;;;;;;;;;;5094911;28;20023;-69
2021/09/04 02:43:59;;;;;;;8.93;5.50;;;;;;;;;;5093680;28;20394;-68
2021/09/04 02:46:25;;;;;;;10.23;4.85;;;;;;;;;;5090286;28;20028;-68
2021/09/04 02:48:51;;;;;;;9.73;5.90;;;;;;;;;;5094864;28;20081;-68
2021/09/04 02:51:17;;;;;;;6.68;5.03;;;;;;;;;;5090551;28;20038;-68
2021/09/04 02:53:43;;;;;;;6.60;4.90;;;;;;;;;;5092574;28;20549;-69
2021/09/04 02:56:09;;;;;;;12.25;5.43;;;;;;;;;;5090579;28;20034;-68
2021/09/04 02:58:36;;;;;;;13.65;5.43;;;;;;;;;;5093075;28;20161;-69
2021/09/04 03:01:02;;;;;;;18.50;6.32;;;;;;;;;;5091609;28;20051;-69
2021/09/04 03:03:29;;;;;;;30.20;8.07;;;;;;;;;;5088039;28;20273;-68
2021/09/04 03:05:56;;;;;;;14.70;7.07;;;;;;;;;;5101644;28;20028;-68
2021/09/04 03:08:22;;;;;;;8.13;6.40;;;;;;;;;;5102834;28;20030;-70
2021/09/04 03:10:48;;;;;;;16.15;6.20;;;;;;;;;;5104291;28;20599;-69
2021/09/04 03:13:14;;;;;;;15.02;6.30;;;;;;;;;;5104091;28;20446;-68
2021/09/04 03:15:40;;;;;;;17.92;6.55;;;;;;;;;;5102391;28;20030;-69
2021/09/04 03:18:06;;;;;;;12.05;6.18;;;;;;;;;;5104045;28;20084;-69
2021/09/04 03:20:33;;;;;;;17.75;6.93;;;;;;;;;;5104247;28;20423;-68
2021/09/04 03:22:59;;;;;;;15.88;7.53;;;;;;;;;;5104202;28;20030;-69
2021/09/04 03:25:25;;;;;;;10.98;7.00;;;;;;;;;;5104136;28;20054;-69
2021/09/04 03:27:51;;;;;;;25.92;9.32;;;;;;;;;;5102689;28;20479;-68
2021/09/04 03:30:17;;;;;;;51.72;14.75;;;;;;;;;;5103514;28;20509;-70
2021/09/04 03:32:43;;;;;;;32.17;11.05;;;;;;;;;;5103625;28;20123;-69
2021/09/04 03:35:10;;;;;;;17.63;9.43;;;;;;;;;;5099312;28;20035;-73
2021/09/04 03:37:36;;;;;;;28.02;11.35;;;;;;;;;;5092961;28;20070;-70
2021/09/04 03:40:03;;;;;;;30.67;11.20;;;;;;;;;;5099043;28;20069;-72
2021/09/04 03:42:30;;;;;;;23.60;9.38;;;;;;;;;;5097964;28;20491;-72
2021/09/04 03:44:56;;;;;;;21.20;8.68;;;;;;;;;;5093554;28;20056;-72
2021/09/04 03:47:22;;;;;;;18.88;8.32;;;;;;;;;;5098490;28;20459;-71
2021/09/04 03:49:48;;;;;;;21.17;8.90;;;;;;;;;;5095623;28;20101;-70
2021/09/04 03:52:14;;;;;;;20.88;7.88;;;;;;;;;;5096494;28;20036;-74
2021/09/04 03:54:41;;;;;;;22.20;8.45;;;;;;;;;;5093622;28;20035;-71
2021/09/04 03:57:07;;;;;;;25.95;7.88;;;;;;;;;;5094853;28;20048;-73
2021/09/04 03:59:33;;;;;;;24.15;7.47;;;;;;;;;;5096820;28;20018;-72
2021/09/04 04:01:59;;;;;;;14.18;6.07;;;;;;;;;;5094851;28;20027;-69
2021/09/04 04:04:26;;;;;;;16.95;6.20;;;;;;;;;;5095809;28;20020;-73
2021/09/04 04:06:52;;;;;;;21.25;7.00;;;;;;;;;;5093381;28;20470;-71
2021/09/04 04:09:18;;;;;;;15.68;5.38;;;;;;;;;;5094783;28;20043;-71
2021/09/04 04:11:44;;;;;;;16.63;5.15;;;;;;;;;;5096208;28;20118;-74
2021/09/04 04:14:11;;;;;;;16.13;4.07;;;;;;;;;;5094213;28;20064;-73
2021/09/04 04:16:37;;;;;;;24.88;5.72;;;;;;;;;;5094992;28;20051;-73
2021/09/04 04:19:03;;;;;;;25.83;5.60;;;;;;;;;;5091913;28;20031;-73
2021/09/04 04:21:29;;;;;;;20.30;4.68;;;;;;;;;;5097101;28;20023;-73
2021/09/04 04:23:56;;;;;;;24.15;4.50;;;;;;;;;;5091951;28;20020;-71
2021/09/04 04:26:22;;;;;;;19.88;4.93;;;;;;;;;;5094812;28;20024;-72
2021/09/04 04:28:48;;;;;;;19.73;4.60;;;;;;;;;;5093721;28;20489;-72
2021/09/04 04:31:14;;;;;;;13.50;3.60;;;;;;;;;;5095127;28;20031;-73
2021/09/04 04:33:40;;;;;;;18.55;3.50;;;;;;;;;;5094484;28;20173;-72
2021/09/04 04:36:06;;;;;;;13.50;3.45;;;;;;;;;;5092827;28;20076;-73
2021/09/04 04:38:32;;;;;;;16.42;3.25;;;;;;;;;;5096697;28;20031;-73
2021/09/04 04:40:59;;;;;;;15.15;4.35;;;;;;;;;;5090829;28;20015;-70
2021/09/04 04:43:25;;;;;;;11.93;2.92;;;;;;;;;;5093045;28;20036;-72
2021/09/04 04:45:51;;;;;;;11.07;3.22;;;;;;;;;;5095507;28;20028;-73
2021/09/04 04:48:19;;;;;;;10.50;3.42;;;;;;;;;;5073900;28;20020;-73
2021/09/04 04:50:45;;;;;;;9.95;3.22;;;;;;;;;;5093184;28;20025;-71
2021/09/04 04:53:12;;;;;;;10.93;3.78;;;;;;;;;;5093643;28;20028;-72
2021/09/04 04:55:38;;;;;;;9.52;3.35;;;;;;;;;;5093896;28;20490;-73
2021/09/04 04:58:04;;;;;;;14.00;3.97;;;;;;;;;;5094159;28;20019;-73
2021/09/04 05:00:31;;;;;;;20.48;4.70;;;;;;;;;;5093236;28;20083;-74
2021/09/04 05:02:57;;;;;;;22.88;5.65;;;;;;;;;;5094592;28;20492;-74
2021/09/04 05:05:23;;;;;;;20.77;4.85;;;;;;;;;;5089710;28;20027;-73
2021/09/04 05:07:49;;;;;;;18.88;4.45;;;;;;;;;;5094706;28;20024;-73
2021/09/04 05:10:15;;;;;;;22.25;5.25;;;;;;;;;;5091288;28;20656;-74
2021/09/04 05:12:41;;;;;;;24.85;4.80;;;;;;;;;;5094072;28;20471;-73
2021/09/04 05:15:08;;;;;;;18.08;4.45;;;;;;;;;;5092156;28;20024;-71
2021/09/04 05:17:34;;;;;;;13.32;3.13;;;;;;;;;;5096667;28;20111;-73
2021/09/04 05:20:00;;;;;;;11.95;3.10;;;;;;;;;;5093194;28;20616;-73
2021/09/04 05:22:26;;;;;;;12.95;3.05;;;;;;;;;;5091459;28;20032;-74
2021/09/04 05:24:52;;;;;;;12.43;2.80;;;;;;;;;;5095027;28;20428;-71
2021/09/04 05:27:19;;;;;;;8.48;2.45;;;;;;;;;;5090392;28;20024;-73
2021/09/04 05:29:45;;;;;;;10.32;2.67;;;;;;;;;;5094203;28;20127;-73
2021/09/04 05:32:11;;;;;;;9.10;2.42;;;;;;;;;;5089091;28;20162;-72
2021/09/04 05:34:37;;;;;;;6.30;2.10;;;;;;;;;;5085252;28;20464;-72
2021/09/04 05:37:03;;;;;;;7.22;2.03;;;;;;;;;;5085221;28;20047;-72
2021/09/04 05:39:29;;;;;;;3.40;1.50;;;;;;;;;;5094665;28;20027;-71
2021/09/04 05:41:56;;;;;;;6.35;1.63;;;;;;;;;;5091487;28;20129;-74
2021/09/04 05:44:22;;;;;;;4.82;1.40;;;;;;;;;;5093446;28;20088;-74
2021/09/04 05:46:48;;;;;;;4.22;1.50;;;;;;;;;;5087389;28;20031;-73
2021/09/04 05:49:14;;;;;;;4.50;1.20;;;;;;;;;;5094736;28;20099;-70
2021/09/04 05:51:40;;;;;;;4.85;1.30;;;;;;;;;;5090723;28;20047;-73
2021/09/04 05:54:06;;;;;;;6.57;1.30;;;;;;;;;;5086862;28;20008;-73
2021/09/04 05:56:32;;;;;;;3.72;1.30;;;;;;;;;;5086817;28;20039;-74
2021/09/04 05:58:59;;;;;;;4.63;1.23;;;;;;;;;;5085194;28;20054;-74
2021/09/04 06:01:25;;;;;;;5.57;1.52;;;;;;;;;;5088524;28;20020;-72
2021/09/04 06:03:51;;;;;;;5.05;1.27;;;;;;;;;;5088748;28;20012;-72
2021/09/04 06:06:17;;;;;;;6.13;1.20;;;;;;;;;;5082989;28;20054;-73
2021/09/04 06:08:43;;;;;;;3.00;1.50;;;;;;;;;;5084620;28;20476;-73
2021/09/04 06:11:09;;;;;;;7.13;2.03;;;;;;;;;;5086922;28;20032;-73
2021/09/04 06:13:36;;;;;;;6.40;2.13;;;;;;;;;;5084192;28;20034;-73
2021/09/04 06:16:02;;;;;;;3.10;1.08;;;;;;;;;;5086987;28;20027;-74
2021/09/04 06:18:28;;;;;;;6.30;1.42;;;;;;;;;;5084579;28;20220;-73
2021/09/04 06:20:54;;;;;;;3.58;1.33;;;;;;;;;;5085923;28;20099;-73
2021/09/04 06:23:20;;;;;;;4.25;1.50;;;;;;;;;;5086916;28;20059;-73
2021/09/04 06:25:46;;;;;;;5.20;1.45;;;;;;;;;;5085288;28;20012;-73
2021/09/04 06:28:13;;;;;;;7.10;1.85;;;;;;;;;;5083763;28;20028;-72
2021/09/04 06:30:39;;;;;;;3.17;1.42;;;;;;;;;;5084656;28;20031;-74
2021/09/04 06:33:05;;;;;;;3.75;1.17;;;;;;;;;;5086396;28;20031;-73
2021/09/04 06:35:31;;;;;;;1.50;0.70;;;;;;;;;;5086199;28;20084;-73
2021/09/04 06:37:57;;;;;;;2.10;1.05;;;;;;;;;;5085048;28;20119;-73
2021/09/04 06:40:23;;;;;;;4.13;1.30;;;;;;;;;;5082864;28;20020;-73
2021/09/04 06:42:49;;;;;;;2.70;1.02;;;;;;;;;;5087613;28;20473;-73
2021/09/04 06:45:16;;;;;;;1.73;0.77;;;;;;;;;;5083858;28;20081;-73
2021/09/04 06:47:42;;;;;;;0.95;0.43;;;;;;;;;;5082705;28;20035;-73
2021/09/04 06:50:08;;;;;;;1.63;0.75;;;;;;;;;;5084224;28;20078;-74
2021/09/04 06:52:34;;;;;;;1.38;0.80;;;;;;;;;;5085230;28;20036;-73
2021/09/04 06:55:00;;;;;;;2.42;0.77;;;;;;;;;;5084097;28;20020;-73
2021/09/04 06:57:27;;;;;;;2.40;1.30;;;;;;;;;;5083308;28;20071;-72
2021/09/04 06:59:53;;;;;;;2.92;0.90;;;;;;;;;;5083513;28;20178;-73
2021/09/04 07:02:19;;;;;;;2.00;0.90;;;;;;;;;;5084197;28;20020;-72
2021/09/04 07:04:45;;;;;;;2.95;0.73;;;;;;;;;;5084347;28;20035;-72
2021/09/04 07:07:11;;;;;;;2.13;0.95;;;;;;;;;;5081869;28;20030;-70
2021/09/04 07:09:38;;;;;;;5.78;1.08;;;;;;;;;;5087313;28;20032;-73
2021/09/04 07:12:04;;;;;;;2.58;1.23;;;;;;;;;;5092314;28;20016;-72
2021/09/04 07:14:30;;;;;;;2.25;0.93;;;;;;;;;;5092586;28;20036;-73
2021/09/04 07:16:56;;;;;;;5.13;1.23;;;;;;;;;;5093126;28;20008;-72
2021/09/04 07:19:22;;;;;;;5.47;1.20;;;;;;;;;;5090233;28;20395;-73
2021/09/04 07:21:49;;;;;;;3.03;0.80;;;;;;;;;;5094921;28;20434;-73
2021/09/04 07:24:15;;;;;;;2.38;0.95;;;;;;;;;;5099186;28;20127;-73
2021/09/04 07:26:41;;;;;;;2.60;0.90;;;;;;;;;;5095312;28;20425;-74
2021/09/04 07:29:07;;;;;;;1.70;0.90;;;;;;;;;;5097860;28;20074;-73
2021/09/04 07:31:33;;;;;;;1.88;0.80;;;;;;;;;;5099285;28;20024;-72
2021/09/04 07:34:00;;;;;;;1.50;0.85;;;;;;;;;;5095648;28;20077;-70
2021/09/04 07:36:26;;;;;;;1.77;0.70;;;;;;;;;;5097615;28;20038;-73
2021/09/04 07:38:52;;;;;;;2.10;0.80;;;;;;;;;;5098220;28;20479;-74
2021/09/04 07:41:19;;;;;;;2.13;0.90;;;;;;;;;;5096180;28;20422;-73
2021/09/04 07:43:45;;;;;;;2.20;0.60;;;;;;;;;;5094924;28;20019;-74
2021/09/04 07:46:11;;;;;;;1.58;0.93;;;;;;;;;;5093120;28;20027;-74
2021/09/04 07:48:38;;;;;;;1.67;0.80;;;;;;;;;;5091232;28;20048;-73
2021/09/04 07:51:04;;;;;;;1.20;0.70;;;;;;;;;;5091466;28;20023;-74
2021/09/04 07:53:30;;;;;;;1.33;0.68;;;;;;;;;;5078501;28;20032;-74
2021/09/04 07:55:56;;;;;;;2.70;0.73;;;;;;;;;;5097287;28;20080;-74
2021/09/04 07:58:22;;;;;;;2.28;0.60;;;;;;;;;;5092935;28;20046;-73
2021/09/04 08:00:48;;;;;;;2.72;0.80;;;;;;;;;;5091884;28;20024;-74
2021/09/04 08:03:15;;;;;;;1.95;0.60;;;;;;;;;;5089261;28;20032;-73
2021/09/04 08:05:41;;;;;;;1.95;0.70;;;;;;;;;;5087718;28;20031;-74
2021/09/04 08:08:07;;;;;;;2.20;0.77;;;;;;;;;;5089520;28;20032;-72
2021/09/04 08:10:33;;;;;;;0.77;0.50;;;;;;;;;;5087118;28;20557;-73
2021/09/04 08:12:59;;;;;;;1.58;0.70;;;;;;;;;;5087123;28;20051;-74
2021/09/04 08:15:25;;;;;;;1.50;0.45;;;;;;;;;;5084533;28;20024;-73
2021/09/04 08:17:51;;;;;;;2.15;0.90;;;;;;;;;;5088691;28;20107;-74
2021/09/04 08:20:18;;;;;;;3.05;0.70;;;;;;;;;;5087862;28;20187;-74
2021/09/04 08:22:44;;;;;;;2.22;0.60;;;;;;;;;;5085537;28;20032;-74
2021/09/04 08:25:10;;;;;;;2.42;0.60;;;;;;;;;;5087263;28;20023;-73
2021/09/04 08:27:37;;;;;;;2.97;0.73;;;;;;;;;;5073314;28;20502;-73
2021/09/04 08:30:03;;;;;;;0.77;0.45;;;;;;;;;;5079306;28;20507;-72
2021/09/04 08:32:30;;;;;;;2.83;0.70;;;;;;;;;;5085616;28;20032;-74
2021/09/04 08:34:56;;;;;;;2.15;0.60;;;;;;;;;;5084874;28;20012;-74
2021/09/04 08:37:22;;;;;;;2.13;0.90;;;;;;;;;;5088729;28;20065;-74
2021/09/04 08:39:48;;;;;;;7.18;0.80;;;;;;;;;;5086509;28;20020;-73
2021/09/04 08:42:14;;;;;;;1.05;0.68;;;;;;;;;;5086323;28;20030;-74
2021/09/04 08:44:40;;;;;;;3.92;0.90;;;;;;;;;;5086017;28;20042;-74
2021/09/04 08:47:06;;;;;;;2.95;1.00;;;;;;;;;;5085414;28;20273;-73
2021/09/04 08:49:35;;;;;;;3.83;1.10;;;;;;;;;;5087853;28;20020;-74
2021/09/04 08:52:01;;;;;;;2.40;0.88;;;;;;;;;;5086781;28;20611;-74
2021/09/04 08:54:27;;;;;;;3.45;1.00;;;;;;;;;;5087230;28;20095;-71
2021/09/04 08:56:54;;;;;;;2.15;0.88;;;;;;;;;;5086073;28;20016;-74
2021/09/04 08:59:20;;;;;;;0.90;0.70;;;;;;;;;;5085630;28;20035;-74
2021/09/04 09:01:46;;;;;;;3.53;0.93;;;;;;;;;;5089201;28;20441;-73
2021/09/04 09:04:17;;;;;;;2.80;0.93;;;;;;;;;;5094191;28;20522;-73
2021/09/04 09:06:43;;;;;;;5.97;1.27;;;;;;;;;;5095871;28;20049;-73
2021/09/04 09:09:17;;;;;;;3.33;1.17;;;;;;;;;;5096216;28;20123;-73
2021/09/04 09:11:44;;;;;;;1.70;0.80;;;;;;;;;;5093624;28;20516;-74
2021/09/04 09:14:10;;;;;;;2.17;0.85;;;;;;;;;;5092867;28;20039;-75
2021/09/04 09:16:47;;;;;;;1.33;0.80;;;;;;;;;;5093323;28;20417;-74
2021/09/04 09:19:13;;;;;;;2.50;0.82;;;;;;;;;;5092653;28;20065;-73
2021/09/04 09:21:40;;;;;;;2.33;0.90;;;;;;;;;;5096011;28;20016;-74
2021/09/04 09:24:13;;;;;;;5.78;1.25;;;;;;;;;;5095816;28;20047;-74
2021/09/04 09:26:56;;;;;;;3.22;0.73;;;;;;;;;;5093147;28;20375;-73
2021/09/04 09:29:24;;;;;;;3.53;0.95;;;;;;;;;;5092659;28;20566;-75
2021/09/04 09:31:50;;;;;;;2.58;0.80;;;;;;;;;;5093601;28;20026;-74
2021/09/04 09:34:17;;;;;;;2.38;0.60;;;;;;;;;;5093136;28;20391;-70
2021/09/04 09:36:50;;;;;;;2.67;0.77;;;;;;;;;;5093678;28;20028;-73
2021/09/04 09:39:16;;;;;;;4.10;1.08;;;;;;;;;;5094151;28;20027;-73
2021/09/04 09:41:47;;;;;;;3.55;1.05;;;;;;;;;;5092137;28;20023;-74
2021/09/04 09:44:20;;;;;;;2.90;1.08;;;;;;;;;;5094337;28;20508;-73
2021/09/04 09:46:56;;;;;;;2.55;0.80;;;;;;;;;;5091961;28;20020;-74
2021/09/04 09:49:29;;;;;;;1.98;0.90;;;;;;;;;;5091230;28;20090;-74
2021/09/04 09:52:00;;;;;;;8.73;1.27;;;;;;;;;;5073447;28;20493;-74
2021/09/04 09:54:27;;;;;;;3.05;0.75;;;;;;;;;;5091377;28;20034;-75
2021/09/04 09:56:55;;;;;;;2.20;0.70;;;;;;;;;;5091506;28;20028;-73
2021/09/04 09:59:22;;;;;;;3.17;0.90;;;;;;;;;;5093035;28;20044;-72
2021/09/04 10:01:49;;;;;;;4.78;0.93;;;;;;;;;;5089048;28;20073;-74
2021/09/04 10:04:16;;;;;;;4.55;0.95;;;;;;;;;;5090613;28;20031;-74
2021/09/04 10:06:43;;;;;;;3.80;1.10;;;;;;;;;;5094762;28;20024;-74
2021/09/04 10:09:09;;;;;;;2.75;0.93;;;;;;;;;;5094599;28;20048;-74
2021/09/04 10:11:37;;;;;;;1.50;0.80;;;;;;;;;;5093129;28;20030;-73
2021/09/04 10:14:05;;;;;;;1.95;0.77;;;;;;;;;;5087541;28;20050;-74
2021/09/04 10:16:32;;;;;;;2.05;0.70;;;;;;;;;;5091403;28;20384;-75
2021/09/04 10:18:58;;;;;;;2.70;1.10;;;;;;;;;;5088441;28;20016;-74
2021/09/04 10:21:26;;;;;;;3.10;0.90;;;;;;;;;;5088459;28;20028;-73
2021/09/04 10:23:53;;;;;;;2.65;0.90;;;;;;;;;;5089399;28;20475;-74
2021/09/04 10:26:33;;;;;;;2.75;0.90;;;;;;;;;;5095076;28;20031;-73
2021/09/04 10:29:02;;;;;;;1.70;1.00;;;;;;;;;;5090645;28;20012;-73
2021/09/04 10:31:48;;;;;;;4.57;1.33;;;;;;;;;;5090573;28;20486;-74
2021/09/04 10:34:15;;;;;;;3.40;1.20;;;;;;;;;;5087884;28;20471;-72
2021/09/04 10:37:01;;;;;;;3.03;0.88;;;;;;;;;;5093932;28;20032;-74
2021/09/04 10:39:45;;;;;;;4.53;1.00;;;;;;;;;;5080190;28;20447;-74
2021/09/04 10:42:14;;;;;;;3.80;1.35;;;;;;;;;;5094846;28;20062;-72
2021/09/04 10:44:44;;;;;;;2.38;1.10;;;;;;;;;;5090611;28;20301;-71
2021/09/04 10:47:10;;;;;;;2.97;1.40;;;;;;;;;;5089446;28;20024;-73
2021/09/04 10:49:43;;;;;;;5.85;1.08;;;;;;;;;;5090594;28;20016;-70
2021/09/04 10:52:10;;;;;;;8.45;1.40;;;;;;;;;;5089912;28;20031;-73
2021/09/04 10:54:39;;;;;;;2.90;1.00;;;;;;;;;;5092749;28;20028;-73
2021/09/04 10:57:17;;;;;;;7.50;1.55;;;;;;;;;;5093125;28;20107;-72
2021/09/04 11:00:00;;;;;;;4.38;1.40;;;;;;;;;;5089822;28;20397;-73
2021/09/04 11:02:39;;;;;;;5.28;1.27;;;;;;;;;;5090930;28;20421;-73
2021/09/04 11:05:24;;;;;;;7.38;1.95;;;;;;;;;;5090984;28;20031;-73
2021/09/04 11:08:04;;;;;;;8.52;1.88;;;;;;;;;;5092741;28;20103;-73
2021/09/04 11:10:31;;;;;;;6.43;1.73;;;;;;;;;;5088657;28;20575;-74
2021/09/04 11:13:12;;;;;;;6.30;1.80;;;;;;;;;;5091783;28;20040;-74
2021/09/04 11:15:38;;;;;;;3.72;1.23;;;;;;;;;;5091016;28;20020;-73
2021/09/04 11:18:05;;;;;;;4.10;1.63;;;;;;;;;;5092677;28;20039;-74
2021/09/04 11:20:31;;;;;;;5.20;1.98;;;;;;;;;;5089881;28;20095;-73
2021/09/04 11:22:58;;;;;;;6.95;1.90;;;;;;;;;;5092129;28;20023;-74
2021/09/04 11:25:24;;;;;;;5.55;1.80;;;;;;;;;;5094944;28;20035;-69
2021/09/04 11:27:51;;;;;;;5.47;1.70;;;;;;;;;;5090143;28;20027;-73
2021/09/04 11:30:18;;;;;;;5.78;1.80;;;;;;;;;;5093399;28;20020;-73
2021/09/04 11:32:44;;;;;;;4.25;1.35;;;;;;;;;;5087877;28;20111;-73
2021/09/04 11:35:11;;;;;;;4.25;1.60;;;;;;;;;;5088539;28;20481;-73
2021/09/04 11:37:37;;;;;;;5.20;1.60;;;;;;;;;;5090890;28;20147;-73
2021/09/04 11:40:07;;;;;;;5.72;1.85;;;;;;;;;;5090216;28;20105;-72
2021/09/04 11:42:35;;;;;;;10.05;2.05;;;;;;;;;;5094945;28;20020;-74
2021/09/04 11:45:03;;;;;;;6.07;1.70;;;;;;;;;;5087793;28;20024;-74
2021/09/04 11:47:30;;;;;;;4.65;1.70;;;;;;;;;;5090501;28;20034;-74
2021/09/04 11:49:58;;;;;;;7.35;1.60;;;;;;;;;;5088841;28;20019;-73
2021/09/04 11:52:24;;;;;;;3.38;1.50;;;;;;;;;;5094746;28;20107;-73
2021/09/04 11:54:51;;;;;;;5.80;1.30;;;;;;;;;;5088211;28;20019;-73
2021/09/04 11:57:30;;;;;;;4.47;1.35;;;;;;;;;;5094721;28;20429;-73
2021/09/04 12:00:00;;;;;;;3.30;1.30;;;;;;;;;;5096681;28;20588;-74
2021/09/04 12:02:26;;;;;;;3.63;1.33;;;;;;;;;;5095455;28;20030;-72
2021/09/04 12:04:53;;;;;;;3.85;1.20;;;;;;;;;;5091690;28;20032;-73
2021/09/04 12:07:19;;;;;;;5.78;1.20;;;;;;;;;;5100632;28;20031;-74
2021/09/04 12:09:45;;;;;;;4.82;1.40;;;;;;;;;;5095755;28;20209;-73
2021/09/04 12:12:12;;;;;;;4.32;1.20;;;;;;;;;;5096278;28;20323;-73
2021/09/04 12:14:38;;;;;;;6.18;1.55;;;;;;;;;;5094736;28;20035;-73
2021/09/04 12:17:06;;;;;;;9.13;1.60;;;;;;;;;;5098473;28;20027;-73
2021/09/04 12:19:39;;;;;;;6.25;1.45;;;;;;;;;;5096113;28;20028;-73
2021/09/04 12:22:06;;;;;;;4.38;1.13;;;;;;;;;;5084272;28;20419;-72
2021/09/04 12:24:33;;;;;;;4.20;1.42;;;;;;;;;;5097950;28;20174;-73
2021/09/04 12:26:59;;;;;;;5.47;2.00;;;;;;;;;;5096646;28;20030;-74
2021/09/04 12:29:29;;;;;;;7.25;1.50;;;;;;;;;;5098520;28;20020;-74
2021/09/04 12:32:12;;;;;;;6.15;1.52;;;;;;;;;;5094028;28;20073;-74
2021/09/04 12:34:38;;;;;;;6.18;1.40;;;;;;;;;;5094469;28;20412;-73
2021/09/04 12:37:23;;;;;;;3.28;1.40;;;;;;;;;;5097541;28;20534;-73
2021/09/04 12:39:49;;;;;;;5.30;1.52;;;;;;;;;;5089146;28;20146;-73
2021/09/04 12:42:16;;;;;;;3.20;1.30;;;;;;;;;;5094759;28;20478;-74
2021/09/04 12:44:43;;;;;;;4.85;1.65;;;;;;;;;;5091411;28;20031;-74
2021/09/04 12:47:10;;;;;;;4.88;1.50;;;;;;;;;;5093934;28;20046;-72
2021/09/04 12:49:37;;;;;;;3.67;1.27;;;;;;;;;;5091749;28;20322;-72
2021/09/04 12:52:11;;;;;;;8.02;1.65;;;;;;;;;;5091786;28;20032;-73
2021/09/04 12:54:46;;;;;;;7.15;1.30;;;;;;;;;;5091412;28;20502;-72
2021/09/04 12:57:24;;;;;;;5.07;1.38;;;;;;;;;;5093630;28;20202;-70
2021/09/04 12:59:54;;;;;;;4.10;1.55;;;;;;;;;;5091495;28;20028;-74
2021/09/04 13:02:30;;;;;;;4.18;1.63;;;;;;;;;;5093849;28;20023;-73
2021/09/04 13:05:04;;;;;;;3.80;1.23;;;;;;;;;;5091000;28;20027;-71
2021/09/04 13:07:40;;;;;;;6.35;1.92;;;;;;;;;;5093597;28;20026;-73
2021/09/04 13:10:07;;;;;;;4.75;1.67;;;;;;;;;;5093907;28;20046;-72
2021/09/04 13:12:33;;;;;;;4.97;1.88;;;;;;;;;;5091946;28;20028;-74
2021/09/04 13:14:59;;;;;;;4.80;1.80;;;;;;;;;;5094930;28;20080;-74
2021/09/04 13:17:25;;;;;;;9.02;2.38;;;;;;;;;;5069651;28;20020;-73
2021/09/04 13:19:51;;;;;;;4.45;2.03;;;;;;;;;;5095419;28;20035;-73
2021/09/04 13:22:17;;;;;;;5.55;1.95;;;;;;;;;;5089823;28;20036;-73
2021/09/04 13:24:44;;;;;;;6.05;2.38;;;;;;;;;;5094612;28;20023;-73
2021/09/04 13:27:10;;;;;;;7.32;2.20;;;;;;;;;;5091209;28;20031;-74
2021/09/04 13:29:37;;;;;;;8.50;2.50;;;;;;;;;;5091586;28;20368;-70
2021/09/04 13:32:03;;;;;;;6.75;2.15;;;;;;;;;;5095706;28;20024;-74
2021/09/04 13:34:29;;;;;;;7.10;2.40;;;;;;;;;;5091677;28;20046;-74
2021/09/04 13:36:57;;;;;;;7.05;2.47;;;;;;;;;;5094246;28;20116;-73
2021/09/04 13:39:23;;;;;;;9.45;2.58;;;;;;;;;;5093204;28;20174;-73
2021/09/04 13:41:49;;;;;;;8.10;2.17;;;;;;;;;;5092156;28;20081;-74
2021/09/04 13:44:15;;;;;;;6.63;2.53;;;;;;;;;;5092554;28;20055;-73
2021/09/04 13:46:41;;;;;;;6.05;2.08;;;;;;;;;;5091508;28;20028;-74
2021/09/04 13:49:07;;;;;;;6.20;2.20;;;;;;;;;;5093397;28;20025;-72
2021/09/04 13:51:34;;;;;;;8.20;2.58;;;;;;;;;;5092502;28;20104;-72
2021/09/04 13:54:00;;;;;;;6.55;2.47;;;;;;;;;;5092423;28;20042;-74
2021/09/04 13:56:26;;;;;;;5.78;2.58;;;;;;;;;;5093361;28;20110;-74
2021/09/04 13:58:53;;;;;;;14.48;2.83;;;;;;;;;;5091365;28;20042;-74
2021/09/04 14:01:19;;;;;;;8.30;2.47;;;;;;;;;;5095593;28;20030;-73
2021/09/04 14:03:46;;;;;;;9.10;2.67;;;;;;;;;;5091205;28;20030;-73
2021/09/04 14:06:12;;;;;;;7.07;2.22;;;;;;;;;;5094326;28;20028;-74
2021/09/04 14:08:38;;;;;;;10.23;2.83;;;;;;;;;;5092947;28;20042;-72
2021/09/04 14:11:05;;;;;;;8.63;3.22;;;;;;;;;;5091130;28;20085;-73
2021/09/04 14:13:31;;;;;;;5.90;2.70;;;;;;;;;;5093393;28;20110;-74
2021/09/04 14:15:57;;;;;;;5.82;2.80;;;;;;;;;;5093546;28;20475;-73
2021/09/04 14:18:23;;;;;;;7.60;2.58;;;;;;;;;;5092433;28;20028;-73
2021/09/04 14:20:50;;;;;;;7.18;2.72;;;;;;;;;;5092021;28;20107;-74
2021/09/04 14:23:16;;;;;;;9.07;3.25;;;;;;;;;;5090616;28;20040;-74
2021/09/04 14:25:42;;;;;;;7.00;2.10;;;;;;;;;;5095599;28;20369;-74
2021/09/04 14:28:08;;;;;;;6.88;2.58;;;;;;;;;;5093758;28;20020;-72
2021/09/04 14:30:34;;;;;;;7.35;2.70;;;;;;;;;;5094579;28;20023;-73
2021/09/04 14:33:00;;;;;;;8.07;2.85;;;;;;;;;;5095210;28;20028;-72
2021/09/04 14:35:27;;;;;;;11.68;2.85;;;;;;;;;;5093921;28;20028;-73
2021/09/04 14:37:58;;;;;;;6.72;2.53;;;;;;;;;;5095048;28;20019;-74